Time,TemperatureF,DewpointF,PressureIn,WindDirection,WindDirectionDegrees,WindSpeedMPH,WindSpeedGustMPH,Humidity,HourlyPrecipIn,Conditions,Clouds,dailyrainin,SoftwareType,DateUTC
2013-03-01 00:02:00,25.0,15.0,-100.00,NE,45,9.0,19.0,67,0.00,,,-99.99,,2013-03-01 06:02:00,
2013-03-01 00:11:00,25.0,15.0,-100.00,NE,45,9.0,19.0,67,0.00,,,-99.99,,2013-03-01 06:11:00,
2013-03-01 00:22:00,25.0,15.0,-100.00,NE,45,9.0,19.0,67,0.00,,,-99.99,,2013-03-01 06:22:00,
2013-03-01 00:32:00,25.0,15.0,-100.00,NE,45,9.0,19.0,67,0.00,,,-99.99,,2013-03-01 06:32:00,
2013-03-01 01:02:00,24.0,12.0,-100.00,NNE,30,4.0,11.0,59,0.00,,,-99.99,,2013-03-01 07:02:00,
2013-03-01 01:11:00,24.0,12.0,-100.00,NNE,30,4.0,11.0,59,0.00,,,-99.99,,2013-03-01 07:11:00,
2013-03-01 01:22:00,24.0,12.0,-100.00,NNE,30,4.0,11.0,59,0.00,,,-99.99,,2013-03-01 07:22:00,
2013-03-01 01:32:00,24.0,12.0,-100.00,NNE,30,4.0,11.0,59,0.00,,,-99.99,,2013-03-01 07:32:00,
2013-03-01 01:51:00,24.0,12.0,-100.00,North,5,6.0,10.0,61,0.00,,,-99.99,,2013-03-01 07:51:00,
2013-03-01 02:02:00,24.0,12.0,-100.00,North,0,7.0,13.0,60,0.00,,,-99.99,,2013-03-01 08:02:00,
2013-03-01 02:12:00,24.0,12.0,-100.00,North,0,7.0,13.0,60,0.00,,,-99.99,,2013-03-01 08:12:00,
2013-03-01 02:22:00,24.0,12.0,-100.00,North,0,7.0,13.0,60,0.00,,,-99.99,,2013-03-01 08:22:00,
2013-03-01 02:32:00,24.0,12.0,-100.00,North,0,7.0,13.0,60,0.00,,,-99.99,,2013-03-01 08:32:00,
2013-03-01 03:02:00,24.0,13.0,-100.00,North,0,7.0,11.0,63,0.00,,,-99.99,,2013-03-01 09:02:00,
2013-03-01 03:12:00,24.0,13.0,-100.00,North,0,7.0,11.0,63,0.00,,,-99.99,,2013-03-01 09:12:00,
2013-03-01 03:22:00,24.0,13.0,-100.00,North,0,7.0,11.0,63,0.00,,,-99.99,,2013-03-01 09:22:00,
2013-03-01 03:32:00,24.0,13.0,-100.00,North,0,7.0,11.0,63,0.00,,,-99.99,,2013-03-01 09:32:00,
2013-03-01 04:02:00,23.0,14.0,-100.00,North,5,8.0,12.0,68,0.00,,,-99.99,,2013-03-01 10:02:00,
2013-03-01 04:11:00,23.0,14.0,-100.00,North,5,8.0,12.0,68,0.00,,,-99.99,,2013-03-01 10:11:00,
2013-03-01 04:22:00,23.0,14.0,-100.00,North,5,8.0,12.0,68,0.00,,,-99.99,,2013-03-01 10:22:00,
2013-03-01 04:32:00,23.0,14.0,-100.00,North,5,8.0,12.0,68,0.00,,,-99.99,,2013-03-01 10:32:00,
2013-03-01 04:53:00,23.0,16.0,-100.00,North,5,6.0,10.0,75,0.00,,,-99.99,,2013-03-01 10:53:00,
2013-03-01 05:01:00,23.0,16.0,-100.00,North,5,6.0,10.0,75,0.00,,,-99.99,,2013-03-01 11:01:00,
2013-03-01 05:11:00,23.0,16.0,-100.00,North,5,6.0,10.0,75,0.00,,,-99.99,,2013-03-01 11:11:00,
2013-03-01 05:22:00,23.0,16.0,-100.00,North,5,6.0,10.0,75,0.00,,,-99.99,,2013-03-01 11:22:00,
2013-03-01 05:32:00,23.0,16.0,-100.00,North,5,6.0,10.0,75,0.00,,,-99.99,,2013-03-01 11:32:00,
2013-03-01 05:52:00,23.0,17.0,-100.00,North,10,8.0,10.0,79,0.00,,,-99.99,,2013-03-01 11:52:00,
2013-03-01 06:02:00,23.0,17.0,-100.00,North,10,8.0,10.0,79,0.00,,,-99.99,,2013-03-01 12:02:00,
2013-03-01 06:11:00,23.0,17.0,-100.00,North,10,8.0,10.0,79,0.00,,,-99.99,,2013-03-01 12:11:00,
2013-03-01 06:21:00,23.0,17.0,-100.00,North,10,8.0,10.0,79,0.00,,,-99.99,,2013-03-01 12:21:00,
2013-03-01 06:32:00,23.0,17.0,-100.00,North,10,8.0,10.0,79,0.00,,,-99.99,,2013-03-01 12:32:00,
2013-03-01 07:01:00,23.0,16.0,-100.00,NNE,20,5.0,9.0,75,0.00,,,-99.99,,2013-03-01 13:01:00,
2013-03-01 07:11:00,23.0,16.0,-100.00,NNE,20,5.0,9.0,75,0.00,,,-99.99,,2013-03-01 13:11:00,
2013-03-01 07:22:00,23.0,16.0,-100.00,NNE,20,5.0,9.0,75,0.00,,,-99.99,,2013-03-01 13:22:00,
2013-03-01 07:32:00,23.0,16.0,-100.00,NNE,20,5.0,9.0,75,0.00,,,-99.99,,2013-03-01 13:32:00,
2013-03-01 07:52:00,23.0,18.0,-100.00,NNE,15,6.0,7.0,83,0.00,,,-99.99,,2013-03-01 13:52:00,
2013-03-01 08:01:00,23.0,18.0,-100.00,NNE,15,6.0,7.0,83,0.00,,,-99.99,,2013-03-01 14:01:00,
2013-03-01 08:11:00,23.0,18.0,-100.00,NNE,15,6.0,7.0,83,0.00,,,-99.99,,2013-03-01 14:11:00,
2013-03-01 08:21:00,23.0,18.0,-100.00,NNE,15,6.0,7.0,83,0.00,,,-99.99,,2013-03-01 14:21:00,
2013-03-01 08:32:00,23.0,18.0,-100.00,NNE,15,6.0,7.0,83,0.00,,,-99.99,,2013-03-01 14:32:00,
2013-03-01 09:02:00,24.0,18.0,-100.00,NNE,25,9.0,13.0,78,0.01,,,-99.99,,2013-03-01 15:02:00,
2013-03-01 09:11:00,24.0,18.0,-100.00,NNE,25,9.0,13.0,78,0.01,,,-99.99,,2013-03-01 15:11:00,
2013-03-01 09:21:00,24.0,18.0,-100.00,NNE,25,9.0,13.0,78,0.01,,,-99.99,,2013-03-01 15:21:00,
2013-03-01 09:31:00,24.0,18.0,-100.00,NNE,25,9.0,13.0,78,0.01,,,-99.99,,2013-03-01 15:31:00,
2013-03-01 09:52:00,24.0,19.0,-100.00,North,10,7.0,12.0,82,0.01,,,-99.99,,2013-03-01 15:52:00,
2013-03-01 10:01:00,24.0,19.0,-100.00,North,10,7.0,12.0,81,0.00,,,-99.99,,2013-03-01 16:01:00,
2013-03-01 10:11:00,24.0,19.0,-100.00,North,10,7.0,12.0,81,0.00,,,-99.99,,2013-03-01 16:11:00,
2013-03-01 10:21:00,24.0,19.0,-100.00,North,10,7.0,12.0,81,0.00,,,-99.99,,2013-03-01 16:21:00,
2013-03-01 10:32:00,24.0,19.0,-100.00,North,10,7.0,12.0,81,0.00,,,-99.99,,2013-03-01 16:32:00,
2013-03-01 10:52:00,25.0,16.0,-100.00,NNE,15,9.0,13.0,70,0.00,,,-99.99,,2013-03-01 16:52:00,
2013-03-01 11:01:00,25.0,17.0,-100.00,NNE,15,6.0,13.0,73,0.00,,,-99.99,,2013-03-01 17:01:00,
2013-03-01 11:11:00,25.0,17.0,-100.00,NNE,15,6.0,13.0,73,0.00,,,-99.99,,2013-03-01 17:11:00,
2013-03-01 11:21:00,25.0,17.0,-100.00,NNE,15,6.0,13.0,73,0.00,,,-99.99,,2013-03-01 17:21:00,
2013-03-01 11:32:00,25.0,17.0,-100.00,NNE,15,6.0,13.0,73,0.00,,,-99.99,,2013-03-01 17:32:00,
2013-03-01 12:01:00,25.0,15.0,-100.00,North,0,10.0,16.0,66,0.00,,,-99.99,,2013-03-01 18:01:00,
2013-03-01 12:12:00,25.0,15.0,-100.00,North,0,10.0,16.0,66,0.00,,,-99.99,,2013-03-01 18:12:00,
2013-03-01 12:22:00,25.0,15.0,-100.00,North,0,10.0,16.0,66,0.00,,,-99.99,,2013-03-01 18:22:00,
2013-03-01 12:32:00,25.0,15.0,-100.00,North,0,10.0,16.0,66,0.00,,,-99.99,,2013-03-01 18:32:00,
2013-03-01 13:01:00,26.0,13.0,-100.00,NNE,15,9.0,17.0,57,0.00,,,-99.99,,2013-03-01 19:01:00,
2013-03-01 13:11:00,26.0,13.0,-100.00,NNE,15,9.0,17.0,57,0.00,,,-99.99,,2013-03-01 19:11:00,
2013-03-01 13:21:00,26.0,13.0,-100.00,NNE,15,9.0,17.0,57,0.00,,,-99.99,,2013-03-01 19:21:00,
2013-03-01 13:31:00,28.0,13.0,-100.00,North,350,10.0,15.0,53,0.00,,,-99.99,,2013-03-01 19:31:00,
2013-03-01 13:32:00,26.0,13.0,-100.00,NNE,15,9.0,17.0,57,0.00,,,-99.99,,2013-03-01 19:32:00,
2013-03-01 13:52:00,28.0,13.0,-100.00,North,350,10.0,15.0,53,0.00,,,-99.99,,2013-03-01 19:52:00,
2013-03-01 14:01:00,28.0,13.0,-100.00,North,350,10.0,15.0,53,0.00,,,-99.99,,2013-03-01 20:01:00,
2013-03-01 14:11:00,28.0,13.0,-100.00,North,350,10.0,15.0,53,0.00,,,-99.99,,2013-03-01 20:11:00,
2013-03-01 14:21:00,28.0,13.0,-100.00,North,350,10.0,15.0,53,0.00,,,-99.99,,2013-03-01 20:21:00,
2013-03-01 14:52:00,30.0,11.0,-100.00,NNW,340,7.0,16.0,45,0.00,,,-99.99,,2013-03-01 20:52:00,
2013-03-01 15:01:00,30.0,11.0,-100.00,NNW,340,7.0,16.0,45,0.00,,,-99.99,,2013-03-01 21:01:00,
2013-03-01 15:11:00,30.0,11.0,-100.00,NNW,340,7.0,16.0,45,0.00,,,-99.99,,2013-03-01 21:11:00,
2013-03-01 15:21:00,30.0,11.0,-100.00,NNW,340,7.0,16.0,45,0.00,,,-99.99,,2013-03-01 21:21:00,
2013-03-01 15:52:00,29.0,10.0,-100.00,North,10,7.0,16.0,45,0.00,,,-99.99,,2013-03-01 21:52:00,
2013-03-01 16:01:00,29.0,10.0,-100.00,North,10,7.0,16.0,45,0.00,,,-99.99,,2013-03-01 22:01:00,
2013-03-01 16:11:00,29.0,10.0,-100.00,North,10,7.0,16.0,45,0.00,,,-99.99,,2013-03-01 22:11:00,
2013-03-01 16:21:00,29.0,10.0,-100.00,North,10,7.0,16.0,45,0.00,,,-99.99,,2013-03-01 22:21:00,
2013-03-01 16:52:00,30.0,9.0,-100.00,NNW,335,9.0,14.0,42,0.00,,,-99.99,,2013-03-01 22:52:00,
2013-03-01 17:01:00,30.0,9.0,-100.00,NNW,335,9.0,14.0,42,0.00,,,-99.99,,2013-03-01 23:01:00,
2013-03-01 17:11:00,30.0,9.0,-100.00,NNW,335,9.0,14.0,42,0.00,,,-99.99,,2013-03-01 23:11:00,
2013-03-01 17:21:00,30.0,9.0,-100.00,NNW,335,9.0,14.0,42,0.00,,,-99.99,,2013-03-01 23:21:00,
2013-03-01 17:52:00,29.0,9.0,-100.00,NNW,340,8.0,13.0,43,0.00,,,-99.99,,2013-03-01 23:52:00,
2013-03-01 18:02:00,29.0,9.0,-100.00,NNW,340,8.0,13.0,43,0.00,,,-99.99,,2013-03-02 00:02:00,
2013-03-01 18:12:00,29.0,9.0,-100.00,NNW,340,8.0,13.0,43,0.00,,,-99.99,,2013-03-02 00:12:00,
2013-03-01 18:22:00,29.0,9.0,-100.00,NNW,340,8.0,13.0,43,0.00,,,-99.99,,2013-03-02 00:22:00,
2013-03-01 18:30:00,26.0,9.0,-100.00,NW,325,4.0,7.0,47,0.00,,,-99.99,,2013-03-02 00:30:00,
2013-03-01 18:52:00,26.0,9.0,-100.00,NW,325,4.0,7.0,47,0.00,,,-99.99,,2013-03-02 00:52:00,
2013-03-01 19:01:00,26.0,9.0,-100.00,NW,325,4.0,7.0,47,0.00,,,-99.99,,2013-03-02 01:01:00,
2013-03-01 19:11:00,26.0,9.0,-100.00,NW,325,4.0,7.0,47,0.00,,,-99.99,,2013-03-02 01:11:00,
2013-03-01 19:21:00,26.0,9.0,-100.00,NW,325,4.0,7.0,47,0.00,,,-99.99,,2013-03-02 01:21:00,
2013-03-01 19:52:00,26.0,9.0,-100.00,NNW,335,5.0,7.0,49,0.00,,,-99.99,,2013-03-02 01:52:00,
2013-03-01 20:01:00,26.0,9.0,-100.00,NNW,335,5.0,7.0,49,0.00,,,-99.99,,2013-03-02 02:01:00,
2013-03-01 20:11:00,26.0,9.0,-100.00,NNW,335,5.0,7.0,49,0.00,,,-99.99,,2013-03-02 02:11:00,
2013-03-01 20:22:00,26.0,9.0,-100.00,NNW,335,5.0,7.0,49,0.00,,,-99.99,,2013-03-02 02:22:00,
2013-03-01 20:52:00,22.0,8.0,-100.00,NE,40,1.0,4.0,56,0.00,,,-99.99,,2013-03-02 02:52:00,
2013-03-01 21:02:00,22.0,8.0,-100.00,NE,40,1.0,4.0,56,0.00,,,-99.99,,2013-03-02 03:02:00,
2013-03-01 21:11:00,22.0,8.0,-100.00,NE,40,1.0,4.0,56,0.00,,,-99.99,,2013-03-02 03:11:00,
2013-03-01 21:21:00,22.0,8.0,-100.00,NE,40,1.0,4.0,56,0.00,,,-99.99,,2013-03-02 03:21:00,
2013-03-01 21:52:00,20.0,9.0,-100.00,NNE,20,2.0,4.0,63,0.00,,,-99.99,,2013-03-02 03:52:00,
2013-03-01 22:01:00,20.0,9.0,-100.00,NNE,20,2.0,4.0,63,0.00,,,-99.99,,2013-03-02 04:01:00,
2013-03-01 22:11:00,20.0,9.0,-100.00,NNE,20,2.0,4.0,63,0.00,,,-99.99,,2013-03-02 04:11:00,
2013-03-01 22:21:00,20.0,9.0,-100.00,NNE,20,2.0,4.0,63,0.00,,,-99.99,,2013-03-02 04:21:00,
2013-03-01 22:52:00,18.0,9.0,-100.00,ENE,60,1.0,2.0,69,0.00,,,-99.99,,2013-03-02 04:52:00,
2013-03-01 23:02:00,18.0,9.0,-100.00,ENE,60,1.0,2.0,69,0.00,,,-99.99,,2013-03-02 05:02:00,
2013-03-01 23:12:00,18.0,9.0,-100.00,ENE,60,1.0,2.0,69,0.00,,,-99.99,,2013-03-02 05:12:00,
2013-03-01 23:22:00,18.0,9.0,-100.00,ENE,60,1.0,2.0,69,0.00,,,-99.99,,2013-03-02 05:22:00,
2013-03-01 23:52:00,17.0,9.0,-100.00,NE,50,3.0,5.0,72,0.00,,,-99.99,,2013-03-02 05:52:00,